sensor_id;sensor_type;location;lat;lon;timestamp;pressure;altitude;pressure_sealevel;temperature;humidity
68226;BME280;55045;49.410;11.030;2023-08-06T00:01:41;97384.31;;;15.27;100.00
68226;BME280;55045;49.410;11.030;2023-08-06T00:04:44;97390.50;;;15.26;100.00
68226;BME280;55045;49.410;11.030;2023-08-06T00:07:49;97379.81;;;15.30;100.00
68226;BME280;55045;49.410;11.030;2023-08-06T00:10:53;97381.72;;;15.27;100.00
68226;BME280;55045;49.410;11.030;2023-08-06T00:13:56;97376.38;;;15.18;100.00
68226;BME280;55045;49.410;11.030;2023-08-06T00:16:59;97363.22;;;15.08;100.00
68226;BME280;55045;49.410;11.030;2023-08-06T00:20:05;97355.25;;;15.10;100.00
68226;BME280;55045;49.410;11.030;2023-08-06T00:23:10;97354.53;;;15.08;100.00
68226;BME280;55045;49.410;11.030;2023-08-06T00:26:13;97344.09;;;15.08;100.00
68226;BME280;55045;49.410;11.030;2023-08-06T00:29:16;97337.47;;;15.04;100.00
68226;BME280;55045;49.410;11.030;2023-08-06T00:32:20;97325.72;;;14.98;100.00
68226;BME280;55045;49.410;11.030;2023-08-06T00:35:23;97314.31;;;14.99;100.00
68226;BME280;55045;49.410;11.030;2023-08-06T00:38:28;97303.19;;;14.86;100.00
68226;BME280;55045;49.410;11.030;2023-08-06T00:41:31;97311.13;;;14.95;100.00
68226;BME280;55045;49.410;11.030;2023-08-06T00:44:34;97318.00;;;14.85;100.00
68226;BME280;55045;49.410;11.030;2023-08-06T00:47:38;97318.84;;;14.86;100.00
68226;BME280;55045;49.410;11.030;2023-08-06T00:50:41;97318.59;;;14.78;100.00
68226;BME280;55045;49.410;11.030;2023-08-06T00:53:46;97319.09;;;14.83;100.00
68226;BME280;55045;49.410;11.030;2023-08-06T00:56:49;97324.78;;;14.77;100.00
68226;BME280;55045;49.410;11.030;2023-08-06T00:59:53;97326.56;;;14.87;100.00
68226;BME280;55045;49.410;11.030;2023-08-06T01:02:57;97319.09;;;14.83;100.00
68226;BME280;55045;49.410;11.030;2023-08-06T01:06:01;97320.25;;;14.90;100.00
68226;BME280;55045;49.410;11.030;2023-08-06T01:09:15;97320.13;;;14.80;100.00
68226;BME280;55045;49.410;11.030;2023-08-06T01:12:25;97325.38;;;14.80;100.00
68226;BME280;55045;49.410;11.030;2023-08-06T01:15:39;97331.19;;;14.84;100.00
68226;BME280;55045;49.410;11.030;2023-08-06T01:18:44;97323.47;;;14.71;100.00
68226;BME280;55045;49.410;11.030;2023-08-06T01:21:52;97321.72;;;14.72;100.00
68226;BME280;55045;49.410;11.030;2023-08-06T01:24:56;97315.63;;;14.71;100.00
68226;BME280;55045;49.410;11.030;2023-08-06T01:28:09;97311.94;;;14.96;100.00
68226;BME280;55045;49.410;11.030;2023-08-06T01:31:18;97305.53;;;14.89;100.00
68226;BME280;55045;49.410;11.030;2023-08-06T01:34:25;97303.31;;;14.73;100.00
68226;BME280;55045;49.410;11.030;2023-08-06T01:37:32;97298.69;;;14.77;100.00
68226;BME280;55045;49.410;11.030;2023-08-06T01:40:38;97292.50;;;14.78;100.00
68226;BME280;55045;49.410;11.030;2023-08-06T01:43:41;97292.06;;;14.73;100.00
68226;BME280;55045;49.410;11.030;2023-08-06T01:46:44;97284.81;;;14.65;100.00
68226;BME280;55045;49.410;11.030;2023-08-06T01:49:48;97289.78;;;14.68;100.00
68226;BME280;55045;49.410;11.030;2023-08-06T01:52:54;97288.94;;;14.67;100.00
68226;BME280;55045;49.410;11.030;2023-08-06T01:55:57;97285.53;;;14.56;100.00
68226;BME280;55045;49.410;11.030;2023-08-06T01:59:01;97287.53;;;14.52;100.00
68226;BME280;55045;49.410;11.030;2023-08-06T02:02:06;97302.38;;;14.52;100.00
68226;BME280;55045;49.410;11.030;2023-08-06T02:05:09;97292.03;;;14.50;100.00
68226;BME280;55045;49.410;11.030;2023-08-06T02:08:15;97289.66;;;14.47;100.00
68226;BME280;55045;49.410;11.030;2023-08-06T02:11:19;97278.28;;;14.59;100.00
68226;BME280;55045;49.410;11.030;2023-08-06T02:14:22;97275.78;;;14.69;100.00
68226;BME280;55045;49.410;11.030;2023-08-06T02:17:25;97278.16;;;14.61;100.00
68226;BME280;55045;49.410;11.030;2023-08-06T02:20:28;97271.78;;;14.54;100.00
68226;BME280;55045;49.410;11.030;2023-08-06T02:23:33;97276.03;;;14.66;100.00
68226;BME280;55045;49.410;11.030;2023-08-06T02:26:36;97277.44;;;14.70;100.00
68226;BME280;55045;49.410;11.030;2023-08-06T02:29:40;97271.19;;;14.61;100.00
68226;BME280;55045;49.410;11.030;2023-08-06T02:32:50;97269.50;;;14.60;100.00
68226;BME280;55045;49.410;11.030;2023-08-06T02:35:59;97251.72;;;14.54;100.00
68226;BME280;55045;49.410;11.030;2023-08-06T02:39:04;97241.16;;;14.45;100.00
68226;BME280;55045;49.410;11.030;2023-08-06T02:42:08;97244.84;;;14.53;100.00
68226;BME280;55045;49.410;11.030;2023-08-06T02:45:11;97249.69;;;14.47;100.00
68226;BME280;55045;49.410;11.030;2023-08-06T02:48:15;97242.22;;;14.42;100.00
68226;BME280;55045;49.410;11.030;2023-08-06T02:51:20;97251.91;;;14.29;100.00
68226;BME280;55045;49.410;11.030;2023-08-06T02:54:24;97239.81;;;14.28;100.00
68226;BME280;55045;49.410;11.030;2023-08-06T02:57:27;97246.59;;;14.41;100.00
68226;BME280;55045;49.410;11.030;2023-08-06T03:00:31;97244.34;;;14.48;100.00
68226;BME280;55045;49.410;11.030;2023-08-06T03:03:35;97241.75;;;14.48;100.00
68226;BME280;55045;49.410;11.030;2023-08-06T08:18:16;97118.53;;;15.92;100.00
68226;BME280;55045;49.410;11.030;2023-08-06T08:21:19;97123.50;;;15.65;100.00
68226;BME280;55045;49.410;11.030;2023-08-06T08:24:22;97122.75;;;15.42;100.00
68226;BME280;55045;49.410;11.030;2023-08-06T08:27:26;97129.91;;;15.40;100.00
68226;BME280;55045;49.410;11.030;2023-08-06T08:30:29;97122.00;;;15.51;100.00
68226;BME280;55045;49.410;11.030;2023-08-06T08:33:34;97137.78;;;15.91;100.00
68226;BME280;55045;49.410;11.030;2023-08-06T08:36:37;97138.09;;;16.28;100.00
68226;BME280;55045;49.410;11.030;2023-08-06T08:39:40;97130.47;;;16.16;100.00
68226;BME280;55045;49.410;11.030;2023-08-06T08:42:44;97127.97;;;16.14;100.00
68226;BME280;55045;49.410;11.030;2023-08-06T08:45:50;97128.94;;;16.13;100.00
68226;BME280;55045;49.410;11.030;2023-08-06T08:48:55;97134.91;;;16.34;100.00
68226;BME280;55045;49.410;11.030;2023-08-06T08:52:01;97126.56;;;16.50;100.00
68226;BME280;55045;49.410;11.030;2023-08-06T08:55:07;97121.06;;;16.63;100.00
68226;BME280;55045;49.410;11.030;2023-08-06T08:58:10;97118.81;;;16.29;100.00
68226;BME280;55045;49.410;11.030;2023-08-06T09:01:14;97115.75;;;16.15;100.00
68226;BME280;55045;49.410;11.030;2023-08-06T09:04:20;97114.94;;;16.33;100.00
68226;BME280;55045;49.410;11.030;2023-08-06T09:07:23;97117.31;;;16.36;100.00
68226;BME280;55045;49.410;11.030;2023-08-06T09:10:27;97104.25;;;16.56;100.00
68226;BME280;55045;49.410;11.030;2023-08-06T09:13:31;97109.53;;;16.75;100.00
68226;BME280;55045;49.410;11.030;2023-08-06T09:16:35;97102.38;;;17.06;100.00
68226;BME280;55045;49.410;11.030;2023-08-06T09:19:42;97108.41;;;17.16;100.00
68226;BME280;55045;49.410;11.030;2023-08-06T09:22:48;97095.47;;;16.95;100.00
68226;BME280;55045;49.410;11.030;2023-08-06T09:25:52;97093.56;;;17.17;100.00
68226;BME280;55045;49.410;11.030;2023-08-06T09:28:55;97083.16;;;17.35;100.00
68226;BME280;55045;49.410;11.030;2023-08-06T09:34:45;97076.94;;;17.45;100.00
68226;BME280;55045;49.410;11.030;2023-08-06T09:37:49;97072.09;;;17.50;100.00
68226;BME280;55045;49.410;11.030;2023-08-06T09:40:52;97071.34;;;18.05;100.00
68226;BME280;55045;49.410;11.030;2023-08-06T09:43:55;97070.63;;;18.40;100.00
68226;BME280;55045;49.410;11.030;2023-08-06T09:46:59;97070.16;;;17.99;100.00
68226;BME280;55045;49.410;11.030;2023-08-06T09:50:05;97074.69;;;17.70;100.00
68226;BME280;55045;49.410;11.030;2023-08-06T09:53:10;97071.00;;;17.43;100.00
68226;BME280;55045;49.410;11.030;2023-08-06T09:56:15;97073.44;;;17.17;100.00
68226;BME280;55045;49.410;11.030;2023-08-06T09:59:20;97072.84;;;17.14;100.00
68226;BME280;55045;49.410;11.030;2023-08-06T10:02:24;97067.91;;;17.20;100.00
68226;BME280;55045;49.410;11.030;2023-08-06T10:05:31;97055.31;;;17.24;100.00
68226;BME280;55045;49.410;11.030;2023-08-06T10:08:35;97069.78;;;17.47;100.00
68226;BME280;55045;49.410;11.030;2023-08-06T10:11:39;97062.84;;;17.46;100.00
68226;BME280;55045;49.410;11.030;2023-08-06T10:14:42;97060.41;;;17.35;100.00
68226;BME280;55045;49.410;11.030;2023-08-06T10:17:47;97056.88;;;17.17;100.00
68226;BME280;55045;49.410;11.030;2023-08-06T10:20:54;97053.56;;;17.15;100.00
68226;BME280;55045;49.410;11.030;2023-08-06T10:23:57;97048.44;;;17.23;100.00
68226;BME280;55045;49.410;11.030;2023-08-06T10:27:01;97043.94;;;17.52;100.00
68226;BME280;55045;49.410;11.030;2023-08-06T10:30:24;97047.53;;;17.98;100.00
68226;BME280;55045;49.410;11.030;2023-08-06T10:33:40;97045.16;;;17.68;100.00
68226;BME280;55045;49.410;11.030;2023-08-06T10:36:45;97047.34;;;17.72;100.00
68226;BME280;55045;49.410;11.030;2023-08-06T10:39:49;97037.84;;;17.62;100.00
68226;BME280;55045;49.410;11.030;2023-08-06T10:42:52;97042.34;;;17.32;100.00
68226;BME280;55045;49.410;11.030;2023-08-06T10:45:57;97040.41;;;17.34;100.00
68226;BME280;55045;49.410;11.030;2023-08-06T10:49:03;97039.81;;;17.87;100.00
68226;BME280;55045;49.410;11.030;2023-08-06T10:52:08;97032.84;;;18.05;100.00
68226;BME280;55045;49.410;11.030;2023-08-06T10:55:11;97046.63;;;18.07;100.00
68226;BME280;55045;49.410;11.030;2023-08-06T10:58:15;97045.81;;;17.79;100.00
68226;BME280;55045;49.410;11.030;2023-08-06T11:01:18;97051.84;;;17.33;100.00
68226;BME280;55045;49.410;11.030;2023-08-06T11:04:21;97049.25;;;17.23;100.00
68226;BME280;55045;49.410;11.030;2023-08-06T11:07:30;97048.22;;;17.53;100.00
68226;BME280;55045;49.410;11.030;2023-08-06T11:10:34;97049.66;;;18.12;100.00
68226;BME280;55045;49.410;11.030;2023-08-06T11:13:37;97044.13;;;18.33;100.00
68226;BME280;55045;49.410;11.030;2023-08-06T11:16:40;97045.25;;;18.49;100.00
68226;BME280;55045;49.410;11.030;2023-08-06T11:19:44;97030.91;;;18.70;100.00
68226;BME280;55045;49.410;11.030;2023-08-06T11:22:50;97035.63;;;18.85;100.00
68226;BME280;55045;49.410;11.030;2023-08-06T11:25:53;97017.41;;;19.09;100.00
68226;BME280;55045;49.410;11.030;2023-08-06T11:28:57;97013.75;;;19.28;100.00
68226;BME280;55045;49.410;11.030;2023-08-06T11:32:03;97002.00;;;19.14;100.00
68226;BME280;55045;49.410;11.030;2023-08-06T11:35:10;97023.03;;;19.14;100.00
68226;BME280;55045;49.410;11.030;2023-08-06T11:38:15;97038.41;;;18.20;100.00
68226;BME280;55045;49.410;11.030;2023-08-06T11:41:20;97026.47;;;17.34;100.00
68226;BME280;55045;49.410;11.030;2023-08-06T11:44:23;97031.06;;;17.22;100.00
68226;BME280;55045;49.410;11.030;2023-08-06T11:47:26;97044.69;;;17.35;100.00
68226;BME280;55045;49.410;11.030;2023-08-06T11:50:30;97036.97;;;17.24;100.00
68226;BME280;55045;49.410;11.030;2023-08-06T11:53:34;97038.56;;;17.54;100.00
68226;BME280;55045;49.410;11.030;2023-08-06T11:56:38;97035.34;;;17.97;100.00
68226;BME280;55045;49.410;11.030;2023-08-06T11:59:41;97024.19;;;18.23;100.00
68226;BME280;55045;49.410;11.030;2023-08-06T12:02:45;97017.81;;;18.43;100.00
68226;BME280;55045;49.410;11.030;2023-08-06T12:05:53;97012.56;;;18.43;100.00
68226;BME280;55045;49.410;11.030;2023-08-06T12:08:58;97005.13;;;18.21;100.00
68226;BME280;55045;49.410;11.030;2023-08-06T12:12:02;97017.19;;;18.13;100.00
68226;BME280;55045;49.410;11.030;2023-08-06T12:15:08;97017.78;;;18.25;100.00
68226;BME280;55045;49.410;11.030;2023-08-06T12:18:11;97017.06;;;18.33;100.00
68226;BME280;55045;49.410;11.030;2023-08-06T12:21:14;97011.56;;;18.08;100.00
68226;BME280;55045;49.410;11.030;2023-08-06T12:24:19;97013.28;;;18.18;100.00
68226;BME280;55045;49.410;11.030;2023-08-06T12:27:22;97010.75;;;18.43;100.00
68226;BME280;55045;49.410;11.030;2023-08-06T12:30:25;97007.81;;;18.29;100.00
68226;BME280;55045;49.410;11.030;2023-08-06T12:33:29;97001.25;;;17.97;100.00
68226;BME280;55045;49.410;11.030;2023-08-06T12:36:32;97005.81;;;17.95;100.00
68226;BME280;55045;49.410;11.030;2023-08-06T12:39:37;97009.72;;;18.19;100.00
68226;BME280;55045;49.410;11.030;2023-08-06T12:42:41;97007.41;;;18.06;100.00
68226;BME280;55045;49.410;11.030;2023-08-06T12:45:44;97012.84;;;18.22;100.00
68226;BME280;55045;49.410;11.030;2023-08-06T12:48:47;97011.50;;;18.54;100.00
68226;BME280;55045;49.410;11.030;2023-08-06T12:51:51;97013.69;;;18.76;100.00
68226;BME280;55045;49.410;11.030;2023-08-06T12:54:56;97007.28;;;18.70;100.00
68226;BME280;55045;49.410;11.030;2023-08-06T12:57:59;97019.47;;;18.80;100.00
68226;BME280;55045;49.410;11.030;2023-08-06T13:01:02;97027.03;;;18.47;100.00
68226;BME280;55045;49.410;11.030;2023-08-06T13:04:06;97036.94;;;18.08;100.00
68226;BME280;55045;49.410;11.030;2023-08-06T13:07:23;97040.72;;;17.78;100.00
68226;BME280;55045;49.410;11.030;2023-08-06T13:10:28;97033.56;;;17.70;100.00
68226;BME280;55045;49.410;11.030;2023-08-06T13:13:33;97036.25;;;17.88;100.00
68226;BME280;55045;49.410;11.030;2023-08-06T13:16:37;97036.78;;;17.92;100.00
68226;BME280;55045;49.410;11.030;2023-08-06T13:19:49;97042.44;;;18.14;100.00
68226;BME280;55045;49.410;11.030;2023-08-06T13:22:52;97043.38;;;18.23;100.00
68226;BME280;55045;49.410;11.030;2023-08-06T13:25:57;97049.44;;;17.96;100.00
68226;BME280;55045;49.410;11.030;2023-08-06T13:29:01;97047.22;;;18.01;100.00
68226;BME280;55045;49.410;11.030;2023-08-06T13:32:05;97057.25;;;18.06;100.00
68226;BME280;55045;49.410;11.030;2023-08-06T13:35:08;97049.53;;;17.77;100.00
68226;BME280;55045;49.410;11.030;2023-08-06T13:38:12;97051.78;;;17.72;100.00
68226;BME280;55045;49.410;11.030;2023-08-06T13:41:16;97057.88;;;17.53;100.00
68226;BME280;55045;49.410;11.030;2023-08-06T13:44:19;97041.78;;;17.48;100.00
68226;BME280;55045;49.410;11.030;2023-08-06T13:47:23;97067.84;;;17.40;100.00
68226;BME280;55045;49.410;11.030;2023-08-06T13:50:26;97071.63;;;17.27;100.00
68226;BME280;55045;49.410;11.030;2023-08-06T13:53:30;97072.31;;;17.20;100.00
68226;BME280;55045;49.410;11.030;2023-08-06T13:56:35;97082.28;;;16.97;100.00
68226;BME280;55045;49.410;11.030;2023-08-06T13:59:39;97096.13;;;16.59;100.00
68226;BME280;55045;49.410;11.030;2023-08-06T14:02:43;97101.19;;;16.41;100.00
68226;BME280;55045;49.410;11.030;2023-08-06T14:05:47;97099.28;;;16.53;100.00
68226;BME280;55045;49.410;11.030;2023-08-06T14:08:50;97106.28;;;16.42;100.00
68226;BME280;55045;49.410;11.030;2023-08-06T14:11:55;97099.53;;;16.30;100.00
68226;BME280;55045;49.410;11.030;2023-08-06T14:14:58;97120.06;;;15.95;100.00
68226;BME280;55045;49.410;11.030;2023-08-06T14:18:02;97140.22;;;15.83;100.00
68226;BME280;55045;49.410;11.030;2023-08-06T14:21:06;97140.16;;;15.73;100.00
68226;BME280;55045;49.410;11.030;2023-08-06T14:24:09;97157.34;;;15.66;100.00
68226;BME280;55045;49.410;11.030;2023-08-06T14:27:13;97164.22;;;15.67;100.00
68226;BME280;55045;49.410;11.030;2023-08-06T14:30:17;97160.00;;;15.55;100.00
68226;BME280;55045;49.410;11.030;2023-08-06T14:33:20;97161.66;;;15.56;100.00
68226;BME280;55045;49.410;11.030;2023-08-06T14:36:29;97169.31;;;15.48;100.00
68226;BME280;55045;49.410;11.030;2023-08-06T14:39:32;97167.66;;;15.47;100.00
68226;BME280;55045;49.410;11.030;2023-08-06T14:42:37;97165.72;;;15.49;100.00
68226;BME280;55045;49.410;11.030;2023-08-06T14:45:40;97182.22;;;15.49;100.00
68226;BME280;55045;49.410;11.030;2023-08-06T14:48:43;97178.03;;;15.58;100.00
68226;BME280;55045;49.410;11.030;2023-08-06T14:51:47;97183.09;;;15.71;100.00
68226;BME280;55045;49.410;11.030;2023-08-06T14:54:50;97177.50;;;15.75;100.00
68226;BME280;55045;49.410;11.030;2023-08-06T14:57:56;97196.41;;;15.89;100.00
68226;BME280;55045;49.410;11.030;2023-08-06T15:00:59;97182.09;;;15.93;100.00
68226;BME280;55045;49.410;11.030;2023-08-06T15:04:02;97179.94;;;15.98;100.00
68226;BME280;55045;49.410;11.030;2023-08-06T15:07:05;97178.81;;;16.21;100.00
68226;BME280;55045;49.410;11.030;2023-08-06T15:10:11;97173.94;;;16.07;100.00
68226;BME280;55045;49.410;11.030;2023-08-06T15:13:29;97189.25;;;16.21;100.00
68226;BME280;55045;49.410;11.030;2023-08-06T15:16:33;97186.06;;;16.08;100.00
68226;BME280;55045;49.410;11.030;2023-08-06T15:19:36;97185.75;;;15.80;100.00
68226;BME280;55045;49.410;11.030;2023-08-06T15:22:39;97191.38;;;15.76;100.00
68226;BME280;55045;49.410;11.030;2023-08-06T15:25:43;97197.19;;;15.79;100.00
68226;BME280;55045;49.410;11.030;2023-08-06T15:28:47;97207.06;;;15.97;100.00
68226;BME280;55045;49.410;11.030;2023-08-06T15:34:45;97217.41;;;15.77;100.00
68226;BME280;55045;49.410;11.030;2023-08-06T15:37:49;97225.50;;;15.74;100.00
68226;BME280;55045;49.410;11.030;2023-08-06T15:40:53;97230.22;;;15.80;100.00
68226;BME280;55045;49.410;11.030;2023-08-06T15:43:56;97223.13;;;15.71;100.00
68226;BME280;55045;49.410;11.030;2023-08-06T15:46:59;97242.13;;;15.73;100.00
68226;BME280;55045;49.410;11.030;2023-08-06T15:50:05;97237.09;;;15.61;100.00
68226;BME280;55045;49.410;11.030;2023-08-06T15:53:08;97252.53;;;15.64;100.00
68226;BME280;55045;49.410;11.030;2023-08-06T15:56:14;97250.97;;;15.61;100.00
68226;BME280;55045;49.410;11.030;2023-08-06T15:59:22;97248.31;;;15.40;100.00
68226;BME280;55045;49.410;11.030;2023-08-06T16:02:25;97251.53;;;15.44;100.00
68226;BME280;55045;49.410;11.030;2023-08-06T16:05:30;97252.66;;;15.51;100.00
68226;BME280;55045;49.410;11.030;2023-08-06T16:08:34;97265.25;;;15.57;100.00
68226;BME280;55045;49.410;11.030;2023-08-06T16:11:37;97269.75;;;15.66;100.00
68226;BME280;55045;49.410;11.030;2023-08-06T16:14:40;97273.75;;;15.70;100.00
68226;BME280;55045;49.410;11.030;2023-08-06T16:17:44;97288.34;;;15.73;100.00
68226;BME280;55045;49.410;11.030;2023-08-06T16:20:48;97288.84;;;15.35;100.00
68226;BME280;55045;49.410;11.030;2023-08-06T16:23:52;97297.44;;;15.14;100.00
68226;BME280;55045;49.410;11.030;2023-08-06T16:26:55;97286.66;;;15.08;100.00
68226;BME280;55045;49.410;11.030;2023-08-06T16:29:58;97298.16;;;15.16;100.00
68226;BME280;55045;49.410;11.030;2023-08-06T16:33:06;97294.84;;;15.14;100.00
68226;BME280;55045;49.410;11.030;2023-08-06T16:36:10;97286.00;;;15.26;100.00
68226;BME280;55045;49.410;11.030;2023-08-06T16:39:13;97282.91;;;15.33;100.00
68226;BME280;55045;49.410;11.030;2023-08-06T16:42:21;97296.91;;;15.43;100.00
68226;BME280;55045;49.410;11.030;2023-08-06T16:45:24;97291.16;;;15.49;100.00
68226;BME280;55045;49.410;11.030;2023-08-06T16:48:27;97284.72;;;15.64;100.00
68226;BME280;55045;49.410;11.030;2023-08-06T16:51:33;97294.78;;;15.69;100.00
68226;BME280;55045;49.410;11.030;2023-08-06T16:54:37;97287.56;;;15.61;100.00
68226;BME280;55045;49.410;11.030;2023-08-06T16:57:40;97294.59;;;15.61;100.00
68226;BME280;55045;49.410;11.030;2023-08-06T17:00:44;97304.09;;;15.50;100.00
68226;BME280;55045;49.410;11.030;2023-08-06T17:03:47;97309.72;;;15.46;100.00
68226;BME280;55045;49.410;11.030;2023-08-06T17:06:55;97312.69;;;15.41;100.00
68226;BME280;55045;49.410;11.030;2023-08-06T17:09:58;97305.00;;;15.28;100.00
68226;BME280;55045;49.410;11.030;2023-08-06T17:13:02;97315.19;;;15.32;100.00
68226;BME280;55045;49.410;11.030;2023-08-06T17:16:21;97312.13;;;15.26;100.00
68226;BME280;55045;49.410;11.030;2023-08-06T17:19:25;97304.75;;;15.32;100.00
68226;BME280;55045;49.410;11.030;2023-08-06T17:22:29;97303.94;;;15.20;100.00
68226;BME280;55045;49.410;11.030;2023-08-06T17:25:32;97316.56;;;15.15;100.00
68226;BME280;55045;49.410;11.030;2023-08-06T17:28:37;97310.47;;;15.25;100.00
68226;BME280;55045;49.410;11.030;2023-08-06T17:31:40;97315.84;;;15.24;100.00
68226;BME280;55045;49.410;11.030;2023-08-06T17:34:44;97316.66;;;15.24;100.00
68226;BME280;55045;49.410;11.030;2023-08-06T17:37:48;97317.50;;;15.14;100.00
68226;BME280;55045;49.410;11.030;2023-08-06T17:40:55;97316.66;;;15.24;100.00
68226;BME280;55045;49.410;11.030;2023-08-06T17:43:59;97318.34;;;15.14;100.00
68226;BME280;55045;49.410;11.030;2023-08-06T17:47:03;97330.88;;;15.32;100.00
68226;BME280;55045;49.410;11.030;2023-08-06T17:50:07;97330.78;;;15.22;100.00
68226;BME280;55045;49.410;11.030;2023-08-06T17:53:11;97325.69;;;15.09;100.00
68226;BME280;55045;49.410;11.030;2023-08-06T17:56:15;97315.72;;;15.14;100.00
68226;BME280;55045;49.410;11.030;2023-08-06T17:59:18;97329.50;;;15.16;100.00
68226;BME280;55045;49.410;11.030;2023-08-06T18:02:22;97319.91;;;15.06;100.00
68226;BME280;55045;49.410;11.030;2023-08-06T18:05:25;97328.19;;;15.11;100.00
68226;BME280;55045;49.410;11.030;2023-08-06T18:08:33;97322.63;;;15.04;100.00
68226;BME280;55045;49.410;11.030;2023-08-06T18:11:37;97327.59;;;15.07;100.00
68226;BME280;55045;49.410;11.030;2023-08-06T18:14:40;97336.28;;;14.96;100.00
68226;BME280;55045;49.410;11.030;2023-08-06T18:17:43;97341.41;;;14.76;100.00
68226;BME280;55045;49.410;11.030;2023-08-06T18:20:48;97363.69;;;14.68;100.00
68226;BME280;55045;49.410;11.030;2023-08-06T18:23:53;97360.22;;;14.46;100.00
68226;BME280;55045;49.410;11.030;2023-08-06T18:26:56;97375.31;;;14.53;100.00
68226;BME280;55045;49.410;11.030;2023-08-06T18:29:59;97372.31;;;14.47;100.00
68226;BME280;55045;49.410;11.030;2023-08-06T18:33:02;97369.53;;;14.37;100.00
68226;BME280;55045;49.410;11.030;2023-08-06T18:36:06;97362.44;;;14.39;100.00
68226;BME280;55045;49.410;11.030;2023-08-06T18:39:11;97363.16;;;14.41;100.00
68226;BME280;55045;49.410;11.030;2023-08-06T18:42:15;97375.75;;;14.47;100.00
68226;BME280;55045;49.410;11.030;2023-08-06T18:45:18;97369.25;;;14.53;100.00
68226;BME280;55045;49.410;11.030;2023-08-06T18:48:23;97369.84;;;14.45;100.00
68226;BME280;55045;49.410;11.030;2023-08-06T18:51:26;97385.75;;;14.53;100.00
68226;BME280;55045;49.410;11.030;2023-08-06T18:54:30;97378.63;;;14.55;100.00
68226;BME280;55045;49.410;11.030;2023-08-06T18:57:34;97380.53;;;14.53;100.00
68226;BME280;55045;49.410;11.030;2023-08-06T19:00:38;97388.00;;;14.58;100.00
68226;BME280;55045;49.410;11.030;2023-08-06T19:03:42;97389.63;;;14.48;100.00
68226;BME280;55045;49.410;11.030;2023-08-06T19:06:45;97396.38;;;14.50;100.00
68226;BME280;55045;49.410;11.030;2023-08-06T19:09:51;97405.41;;;14.46;100.00
68226;BME280;55045;49.410;11.030;2023-08-06T19:12:54;97388.09;;;14.45;100.00
68226;BME280;55045;49.410;11.030;2023-08-06T19:15:57;97409.19;;;14.42;100.00
68226;BME280;55045;49.410;11.030;2023-08-06T19:19:01;97402.81;;;14.46;100.00
68226;BME280;55045;49.410;11.030;2023-08-06T19:22:04;97399.44;;;14.44;100.00
68226;BME280;55045;49.410;11.030;2023-08-06T19:25:09;97396.63;;;14.47;100.00
68226;BME280;55045;49.410;11.030;2023-08-06T19:28:13;97407.50;;;14.41;100.00
68226;BME280;55045;49.410;11.030;2023-08-06T19:31:18;97411.78;;;14.42;100.00
68226;BME280;55045;49.410;11.030;2023-08-06T19:34:21;97411.75;;;14.31;100.00
68226;BME280;55045;49.410;11.030;2023-08-06T19:37:24;97416.75;;;14.34;100.00
68226;BME280;55045;49.410;11.030;2023-08-06T19:40:29;97416.00;;;14.21;100.00
68226;BME280;55045;49.410;11.030;2023-08-06T19:43:33;97431.09;;;14.04;100.00
68226;BME280;55045;49.410;11.030;2023-08-06T19:46:36;97417.09;;;14.05;100.00
68226;BME280;55045;49.410;11.030;2023-08-06T19:49:40;97428.72;;;14.01;100.00
68226;BME280;55045;49.410;11.030;2023-08-06T19:52:43;97434.25;;;13.97;100.00
68226;BME280;55045;49.410;11.030;2023-08-06T19:55:48;97435.19;;;13.96;100.00
68226;BME280;55045;49.410;11.030;2023-08-06T19:58:52;97422.38;;;13.69;100.00
68226;BME280;55045;49.410;11.030;2023-08-06T20:01:55;97427.88;;;13.77;100.00
68226;BME280;55045;49.410;11.030;2023-08-06T20:04:59;97438.41;;;13.75;100.00
68226;BME280;55045;49.410;11.030;2023-08-06T20:08:02;97435.41;;;13.69;100.00
68226;BME280;55045;49.410;11.030;2023-08-06T20:11:08;97426.16;;;13.65;100.00
68226;BME280;55045;49.410;11.030;2023-08-06T20:14:11;97436.91;;;13.60;100.00
68226;BME280;55045;49.410;11.030;2023-08-06T20:17:14;97431.28;;;13.53;100.00
68226;BME280;55045;49.410;11.030;2023-08-06T20:20:18;97440.47;;;13.46;100.00
68226;BME280;55045;49.410;11.030;2023-08-06T20:23:21;97434.88;;;13.40;100.00
68226;BME280;55045;49.410;11.030;2023-08-06T20:26:30;97452.47;;;13.36;100.00
68226;BME280;55045;49.410;11.030;2023-08-06T20:29:33;97440.59;;;13.45;100.00
68226;BME280;55045;49.410;11.030;2023-08-06T20:32:37;97437.16;;;13.44;100.00
68226;BME280;55045;49.410;11.030;2023-08-06T20:35:41;97436.72;;;13.38;100.00
68226;BME280;55045;49.410;11.030;2023-08-06T20:38:44;97432.06;;;13.43;100.00
68226;BME280;55045;49.410;11.030;2023-08-06T20:41:49;97438.31;;;13.40;100.00
68226;BME280;55045;49.410;11.030;2023-08-06T20:44:52;97425.94;;;13.31;100.00
68226;BME280;55045;49.410;11.030;2023-08-06T20:47:55;97431.34;;;13.28;100.00
68226;BME280;55045;49.410;11.030;2023-08-06T20:50:58;97435.94;;;13.24;100.00
68226;BME280;55045;49.410;11.030;2023-08-06T20:54:02;97441.16;;;13.24;100.00
68226;BME280;55045;49.410;11.030;2023-08-06T20:57:09;97445.75;;;13.21;100.00
68226;BME280;55045;49.410;11.030;2023-08-06T21:00:13;97451.16;;;13.31;100.00
68226;BME280;55045;49.410;11.030;2023-08-06T21:03:16;97453.22;;;13.25;100.00
68226;BME280;55045;49.410;11.030;2023-08-06T21:06:20;97456.16;;;13.21;100.00
68226;BME280;55045;49.410;11.030;2023-08-06T21:09:25;97441.16;;;13.12;100.00